sensor_id;sensor_type;location;lat;lon;timestamp;P1;durP1;ratioP1;P2;durP2;ratioP2
61675;SDS011;47574;52.090;5.244;2022-10-18T00:01:28;28.1;;;18.3;;
61675;SDS011;47574;52.090;5.244;2022-10-18T00:04:40;24.5;;;17.3;;
61675;SDS011;47574;52.090;5.244;2022-10-18T00:06:16;24.5;;;17.3;;
61675;SDS011;47574;52.090;5.244;2022-10-18T00:07:52;20.8;;;17.41;;
61675;SDS011;47574;52.090;5.244;2022-10-18T00:11:05;20.9;;;15.8;;
61675;SDS011;47574;52.090;5.244;2022-10-18T00:12:42;20.41;;;15.4;;
61675;SDS011;47574;52.090;5.244;2022-10-18T00:14:18;18.11;;;15.6;;
61675;SDS011;47574;52.090;5.244;2022-10-18T00:15:56;21.2;;;15.4;;
61675;SDS011;47574;52.090;5.244;2022-10-18T00:19:09;21.3;;;15.0;;
61675;SDS011;47574;52.090;5.244;2022-10-18T00:20:54;26.9;;;17.0;;
61675;SDS011;47574;52.090;5.244;2022-10-18T00:22:32;21.0;;;15.8;;
61675;SDS011;47574;52.090;5.244;2022-10-18T00:25:45;23.5;;;15.2;;
61675;SDS011;47574;52.090;5.244;2022-10-18T00:27:21;21.5;;;15.3;;
61675;SDS011;47574;52.090;5.244;2022-10-18T00:28:58;24.4;;;17.0;;
61675;SDS011;47574;52.090;5.244;2022-10-18T00:30:40;30.3;;;18.0;;
61675;SDS011;47574;52.090;5.244;2022-10-18T00:33:53;28.1;;;16.7;;
61675;SDS011;47574;52.090;5.244;2022-10-18T00:35:32;23.1;;;16.5;;
61675;SDS011;47574;52.090;5.244;2022-10-18T00:37:10;21.4;;;15.4;;
61675;SDS011;47574;52.090;5.244;2022-10-18T00:40:23;26.3;;;15.9;;
61675;SDS011;47574;52.090;5.244;2022-10-18T00:41:59;32.6;;;17.91;;
61675;SDS011;47574;52.090;5.244;2022-10-18T00:43:49;33.3;;;18.3;;
61675;SDS011;47574;52.090;5.244;2022-10-18T00:46:35;37.0;;;20.8;;
61675;SDS011;47574;52.090;5.244;2022-10-18T00:48:12;49.8;;;23.9;;
61675;SDS011;47574;52.090;5.244;2022-10-18T00:49:53;74.0;;;26.7;;
61675;SDS011;47574;52.090;5.244;2022-10-18T00:51:37;57.3;;;23.4;;
61675;SDS011;47574;52.090;5.244;2022-10-18T00:54:58;48.1;;;21.8;;
61675;SDS011;47574;52.090;5.244;2022-10-18T00:56:35;42.1;;;21.1;;
61675;SDS011;47574;52.090;5.244;2022-10-18T00:58:11;42.5;;;23.3;;
61675;SDS011;47574;52.090;5.244;2022-10-18T00:59:50;41.6;;;21.3;;
61675;SDS011;47574;52.090;5.244;2022-10-18T01:03:04;37.9;;;20.9;;
61675;SDS011;47574;52.090;5.244;2022-10-18T01:04:41;39.5;;;20.8;;
61675;SDS011;47574;52.090;5.244;2022-10-18T01:06:17;40.71;;;23.3;;
61675;SDS011;47574;52.090;5.244;2022-10-18T01:09:53;48.3;;;25.4;;
61675;SDS011;47574;52.090;5.244;2022-10-18T01:11:52;56.8;;;27.1;;
61675;SDS011;47574;52.090;5.244;2022-10-18T01:13:49;35.4;;;22.5;;
61675;SDS011;47574;52.090;5.244;2022-10-18T01:15:47;47.4;;;21.2;;
61675;SDS011;47574;52.090;5.244;2022-10-18T01:17:45;28.0;;;18.2;;
61675;SDS011;47574;52.090;5.244;2022-10-18T01:19:44;40.5;;;19.61;;
61675;SDS011;47574;52.090;5.244;2022-10-18T01:22:26;30.0;;;20.2;;
61675;SDS011;47574;52.090;5.244;2022-10-18T01:24:17;28.9;;;18.41;;
61675;SDS011;47574;52.090;5.244;2022-10-18T01:26:39;30.7;;;17.61;;
61675;SDS011;47574;52.090;5.244;2022-10-18T01:28:40;26.5;;;17.5;;
61675;SDS011;47574;52.090;5.244;2022-10-18T01:30:39;30.0;;;17.8;;
61675;SDS011;47574;52.090;5.244;2022-10-18T01:34:12;26.5;;;15.8;;
61675;SDS011;47574;52.090;5.244;2022-10-18T01:35:52;18.61;;;15.6;;
61675;SDS011;47574;52.090;5.244;2022-10-18T01:37:35;28.1;;;17.11;;
61675;SDS011;47574;52.090;5.244;2022-10-18T01:40:56;23.9;;;17.11;;
61675;SDS011;47574;52.090;5.244;2022-10-18T01:42:35;19.91;;;15.7;;
61675;SDS011;47574;52.090;5.244;2022-10-18T01:44:13;28.1;;;18.11;;
61675;SDS011;47574;52.090;5.244;2022-10-18T01:45:55;34.5;;;20.2;;
61675;SDS011;47574;52.090;5.244;2022-10-18T01:49:12;30.6;;;19.0;;
61675;SDS011;47574;52.090;5.244;2022-10-18T01:50:48;49.2;;;19.3;;
61675;SDS011;47574;52.090;5.244;2022-10-18T01:52:24;40.31;;;20.11;;
61675;SDS011;47574;52.090;5.244;2022-10-18T01:55:38;32.0;;;18.0;;
61675;SDS011;47574;52.090;5.244;2022-10-18T01:57:21;31.0;;;19.61;;
61675;SDS011;47574;52.090;5.244;2022-10-18T01:59:16;43.0;;;22.1;;
61675;SDS011;47574;52.090;5.244;2022-10-18T02:01:05;38.1;;;21.4;;
61675;SDS011;47574;52.090;5.244;2022-10-18T02:02:46;20.5;;;15.0;;
61675;SDS011;47574;52.090;5.244;2022-10-18T02:06:17;32.4;;;16.5;;
61675;SDS011;47574;52.090;5.244;2022-10-18T02:07:58;39.71;;;15.3;;
61675;SDS011;47574;52.090;5.244;2022-10-18T02:09:45;33.21;;;15.4;;
61675;SDS011;47574;52.090;5.244;2022-10-18T02:11:28;30.9;;;15.1;;
61675;SDS011;47574;52.090;5.244;2022-10-18T02:13:07;52.7;;;20.41;;
61675;SDS011;47574;52.090;5.244;2022-10-18T02:16:27;43.8;;;20.41;;
61675;SDS011;47574;52.090;5.244;2022-10-18T02:18:10;29.7;;;17.8;;
61675;SDS011;47574;52.090;5.244;2022-10-18T02:19:52;31.7;;;18.11;;
61675;SDS011;47574;52.090;5.244;2022-10-18T02:21:31;25.9;;;15.6;;
61675;SDS011;47574;52.090;5.244;2022-10-18T02:24:47;24.0;;;14.9;;
61675;SDS011;47574;52.090;5.244;2022-10-18T02:26:27;33.4;;;15.1;;
61675;SDS011;47574;52.090;5.244;2022-10-18T02:28:05;33.4;;;15.1;;
61675;SDS011;47574;52.090;5.244;2022-10-18T02:31:19;37.1;;;19.5;;
61675;SDS011;47574;52.090;5.244;2022-10-18T02:33:03;38.1;;;21.2;;
61675;SDS011;47574;52.090;5.244;2022-10-18T02:34:48;32.9;;;18.0;;
61675;SDS011;47574;52.090;5.244;2022-10-18T02:36:32;28.5;;;17.0;;
61675;SDS011;47574;52.090;5.244;2022-10-18T02:38:16;20.41;;;13.7;;
61675;SDS011;47574;52.090;5.244;2022-10-18T02:41:31;34.81;;;15.8;;
61675;SDS011;47574;52.090;5.244;2022-10-18T02:43:08;34.1;;;17.61;;
61675;SDS011;47574;52.090;5.244;2022-10-18T02:44:44;63.1;;;24.2;;
61675;SDS011;47574;52.090;5.244;2022-10-18T02:47:57;59.8;;;21.3;;
61675;SDS011;47574;52.090;5.244;2022-10-18T02:49:33;37.1;;;19.61;;
61675;SDS011;47574;52.090;5.244;2022-10-18T02:51:09;40.1;;;18.61;;
61675;SDS011;47574;52.090;5.244;2022-10-18T02:52:45;38.6;;;20.0;;
61675;SDS011;47574;52.090;5.244;2022-10-18T02:55:58;34.6;;;20.0;;
61675;SDS011;47574;52.090;5.244;2022-10-18T02:57:35;26.3;;;15.6;;
61675;SDS011;47574;52.090;5.244;2022-10-18T02:59:12;23.9;;;13.4;;
61675;SDS011;47574;52.090;5.244;2022-10-18T03:02:24;22.6;;;16.7;;
61675;SDS011;47574;52.090;5.244;2022-10-18T03:04:01;25.1;;;16.9;;
61675;SDS011;47574;52.090;5.244;2022-10-18T03:05:38;16.2;;;14.4;;
61675;SDS011;47574;52.090;5.244;2022-10-18T03:08:51;23.7;;;15.4;;
61675;SDS011;47574;52.090;5.244;2022-10-18T03:10:27;17.41;;;14.1;;
61675;SDS011;47574;52.090;5.244;2022-10-18T03:12:04;19.2;;;13.8;;
61675;SDS011;47574;52.090;5.244;2022-10-18T03:13:41;16.0;;;13.3;;
61675;SDS011;47574;52.090;5.244;2022-10-18T03:16:53;15.1;;;13.5;;
61675;SDS011;47574;52.090;5.244;2022-10-18T03:18:29;14.1;;;12.7;;
61675;SDS011;47574;52.090;5.244;2022-10-18T03:20:06;14.0;;;12.6;;
61675;SDS011;47574;52.090;5.244;2022-10-18T03:23:19;17.41;;;13.5;;
61675;SDS011;47574;52.090;5.244;2022-10-18T03:24:56;15.6;;;13.4;;
61675;SDS011;47574;52.090;5.244;2022-10-18T03:26:33;19.91;;;14.3;;
61675;SDS011;47574;52.090;5.244;2022-10-18T03:29:45;17.0;;;13.8;;
61675;SDS011;47574;52.090;5.244;2022-10-18T03:31:21;31.9;;;15.0;;
61675;SDS011;47574;52.090;5.244;2022-10-18T03:32:57;21.6;;;14.7;;
61675;SDS011;47574;52.090;5.244;2022-10-18T03:34:33;18.7;;;13.2;;
61675;SDS011;47574;52.090;5.244;2022-10-18T03:37:46;17.7;;;13.6;;
61675;SDS011;47574;52.090;5.244;2022-10-18T03:39:24;17.7;;;13.4;;
61675;SDS011;47574;52.090;5.244;2022-10-18T03:41:00;21.4;;;14.5;;
61675;SDS011;47574;52.090;5.244;2022-10-18T03:44:12;18.11;;;12.2;;
61675;SDS011;47574;52.090;5.244;2022-10-18T03:45:48;17.8;;;11.5;;
61675;SDS011;47574;52.090;5.244;2022-10-18T03:47:24;18.3;;;13.9;;
61675;SDS011;47574;52.090;5.244;2022-10-18T03:50:36;15.0;;;13.5;;
61675;SDS011;47574;52.090;5.244;2022-10-18T03:52:12;13.3;;;11.9;;
61675;SDS011;47574;52.090;5.244;2022-10-18T03:53:49;16.61;;;11.6;;
61675;SDS011;47574;52.090;5.244;2022-10-18T03:57:01;17.3;;;11.6;;
61675;SDS011;47574;52.090;5.244;2022-10-18T03:58:37;14.2;;;11.6;;
61675;SDS011;47574;52.090;5.244;2022-10-18T04:00:13;13.3;;;11.9;;
61675;SDS011;47574;52.090;5.244;2022-10-18T04:01:50;12.3;;;11.0;;
61675;SDS011;47574;52.090;5.244;2022-10-18T04:05:03;14.9;;;10.9;;
61675;SDS011;47574;52.090;5.244;2022-10-18T04:06:39;14.1;;;11.5;;
61675;SDS011;47574;52.090;5.244;2022-10-18T04:08:16;14.7;;;11.1;;
61675;SDS011;47574;52.090;5.244;2022-10-18T04:11:29;17.41;;;13.6;;
61675;SDS011;47574;52.090;5.244;2022-10-18T04:13:05;23.9;;;12.3;;
61675;SDS011;47574;52.090;5.244;2022-10-18T04:14:42;20.3;;;12.8;;
61675;SDS011;47574;52.090;5.244;2022-10-18T04:17:55;26.1;;;12.5;;
61675;SDS011;47574;52.090;5.244;2022-10-18T04:19:31;29.3;;;14.5;;
61675;SDS011;47574;52.090;5.244;2022-10-18T04:21:08;37.4;;;13.7;;
61675;SDS011;47574;52.090;5.244;2022-10-18T04:22:44;26.1;;;13.2;;
61675;SDS011;47574;52.090;5.244;2022-10-18T04:25:59;29.4;;;15.1;;
61675;SDS011;47574;52.090;5.244;2022-10-18T04:27:35;27.4;;;13.0;;
61675;SDS011;47574;52.090;5.244;2022-10-18T04:29:11;25.2;;;10.8;;
61675;SDS011;47574;52.090;5.244;2022-10-18T04:32:27;25.7;;;12.3;;
61675;SDS011;47574;52.090;5.244;2022-10-18T04:34:04;36.31;;;12.3;;
61675;SDS011;47574;52.090;5.244;2022-10-18T04:35:40;24.3;;;13.1;;
61675;SDS011;47574;52.090;5.244;2022-10-18T04:38:52;28.0;;;13.7;;
61675;SDS011;47574;52.090;5.244;2022-10-18T04:40:28;15.6;;;11.1;;
61675;SDS011;47574;52.090;5.244;2022-10-18T04:42:04;11.1;;;9.9;;
61675;SDS011;47574;52.090;5.244;2022-10-18T04:43:40;10.0;;;9.21;;
61675;SDS011;47574;52.090;5.244;2022-10-18T04:46:53;12.6;;;10.0;;
61675;SDS011;47574;52.090;5.244;2022-10-18T04:48:29;11.1;;;10.0;;
61675;SDS011;47574;52.090;5.244;2022-10-18T04:50:05;10.7;;;9.71;;
61675;SDS011;47574;52.090;5.244;2022-10-18T04:53:18;12.2;;;10.6;;
61675;SDS011;47574;52.090;5.244;2022-10-18T04:54:54;12.8;;;11.1;;
61675;SDS011;47574;52.090;5.244;2022-10-18T04:56:30;16.8;;;11.3;;
61675;SDS011;47574;52.090;5.244;2022-10-18T04:59:42;12.7;;;9.9;;
61675;SDS011;47574;52.090;5.244;2022-10-18T05:01:19;10.6;;;9.6;;
61675;SDS011;47574;52.090;5.244;2022-10-18T05:02:55;11.0;;;9.9;;
61675;SDS011;47574;52.090;5.244;2022-10-18T05:04:32;11.0;;;9.71;;
61675;SDS011;47574;52.090;5.244;2022-10-18T05:07:45;15.4;;;10.1;;
61675;SDS011;47574;52.090;5.244;2022-10-18T05:09:23;13.7;;;10.0;;
61675;SDS011;47574;52.090;5.244;2022-10-18T05:10:59;24.2;;;11.0;;
61675;SDS011;47574;52.090;5.244;2022-10-18T05:14:13;23.2;;;10.21;;
61675;SDS011;47574;52.090;5.244;2022-10-18T05:15:49;23.5;;;11.0;;
61675;SDS011;47574;52.090;5.244;2022-10-18T05:17:25;12.9;;;10.21;;
61675;SDS011;47574;52.090;5.244;2022-10-18T05:20:39;15.5;;;9.71;;
61675;SDS011;47574;52.090;5.244;2022-10-18T05:22:15;19.61;;;10.8;;
61675;SDS011;47574;52.090;5.244;2022-10-18T05:23:53;14.9;;;9.31;;
61675;SDS011;47574;52.090;5.244;2022-10-18T05:25:30;17.7;;;10.8;;
61675;SDS011;47574;52.090;5.244;2022-10-18T05:28:43;14.7;;;11.1;;
61675;SDS011;47574;52.090;5.244;2022-10-18T05:30:19;14.7;;;11.1;;
61675;SDS011;47574;52.090;5.244;2022-10-18T05:31:56;12.6;;;9.21;;
61675;SDS011;47574;52.090;5.244;2022-10-18T05:35:10;12.2;;;10.8;;
61675;SDS011;47574;52.090;5.244;2022-10-18T05:36:48;15.6;;;12.6;;
61675;SDS011;47574;52.090;5.244;2022-10-18T05:38:24;16.3;;;10.7;;
61675;SDS011;47574;52.090;5.244;2022-10-18T05:41:36;14.7;;;10.8;;
61675;SDS011;47574;52.090;5.244;2022-10-18T05:43:12;19.5;;;12.1;;
61675;SDS011;47574;52.090;5.244;2022-10-18T05:44:48;13.5;;;10.1;;
61675;SDS011;47574;52.090;5.244;2022-10-18T05:46:24;12.5;;;8.81;;
61675;SDS011;47574;52.090;5.244;2022-10-18T05:49:36;18.11;;;12.3;;
61675;SDS011;47574;52.090;5.244;2022-10-18T05:51:12;24.5;;;10.8;;
61675;SDS011;47574;52.090;5.244;2022-10-18T05:52:49;33.21;;;12.6;;
61675;SDS011;47574;52.090;5.244;2022-10-18T05:56:01;29.2;;;12.6;;
61675;SDS011;47574;52.090;5.244;2022-10-18T05:57:38;38.5;;;11.7;;
61675;SDS011;47574;52.090;5.244;2022-10-18T05:59:14;27.6;;;12.9;;
61675;SDS011;47574;52.090;5.244;2022-10-18T06:02:26;30.4;;;13.3;;
61675;SDS011;47574;52.090;5.244;2022-10-18T06:04:02;32.1;;;10.6;;
61675;SDS011;47574;52.090;5.244;2022-10-18T06:05:38;25.6;;;10.0;;
61675;SDS011;47574;52.090;5.244;2022-10-18T06:08:51;21.1;;;11.0;;
61675;SDS011;47574;52.090;5.244;2022-10-18T06:10:27;45.2;;;13.2;;
61675;SDS011;47574;52.090;5.244;2022-10-18T06:12:03;37.31;;;11.8;;
61675;SDS011;47574;52.090;5.244;2022-10-18T06:13:41;27.5;;;12.8;;
61675;SDS011;47574;52.090;5.244;2022-10-18T06:16:55;28.4;;;12.2;;
61675;SDS011;47574;52.090;5.244;2022-10-18T06:18:31;33.6;;;12.3;;
61675;SDS011;47574;52.090;5.244;2022-10-18T06:20:08;31.1;;;12.0;;
61675;SDS011;47574;52.090;5.244;2022-10-18T06:23:21;18.8;;;11.9;;
61675;SDS011;47574;52.090;5.244;2022-10-18T06:24:57;27.0;;;12.8;;
61675;SDS011;47574;52.090;5.244;2022-10-18T06:26:33;38.1;;;15.8;;
61675;SDS011;47574;52.090;5.244;2022-10-18T06:29:45;44.7;;;15.1;;
61675;SDS011;47574;52.090;5.244;2022-10-18T06:31:21;25.2;;;12.6;;
61675;SDS011;47574;52.090;5.244;2022-10-18T06:32:58;25.4;;;11.5;;
61675;SDS011;47574;52.090;5.244;2022-10-18T06:34:35;21.9;;;12.1;;
61675;SDS011;47574;52.090;5.244;2022-10-18T06:37:50;19.11;;;10.6;;
61675;SDS011;47574;52.090;5.244;2022-10-18T06:39:26;14.9;;;10.6;;
61675;SDS011;47574;52.090;5.244;2022-10-18T06:41:03;16.7;;;10.21;;
61675;SDS011;47574;52.090;5.244;2022-10-18T06:44:17;13.3;;;10.4;;
61675;SDS011;47574;52.090;5.244;2022-10-18T06:45:53;12.2;;;10.4;;
61675;SDS011;47574;52.090;5.244;2022-10-18T06:47:30;19.91;;;11.7;;
61675;SDS011;47574;52.090;5.244;2022-10-18T06:49:07;12.5;;;9.4;;
61675;SDS011;47574;52.090;5.244;2022-10-18T06:52:26;18.11;;;9.6;;
61675;SDS011;47574;52.090;5.244;2022-10-18T06:54:02;14.8;;;9.71;;
61675;SDS011;47574;52.090;5.244;2022-10-18T06:55:39;15.9;;;9.9;;
61675;SDS011;47574;52.090;5.244;2022-10-18T06:58:51;14.7;;;8.81;;
61675;SDS011;47574;52.090;5.244;2022-10-18T07:00:27;18.3;;;9.0;;
61675;SDS011;47574;52.090;5.244;2022-10-18T07:02:04;24.1;;;8.71;;
61675;SDS011;47574;52.090;5.244;2022-10-18T07:05:17;25.0;;;10.4;;
61675;SDS011;47574;52.090;5.244;2022-10-18T07:06:53;8.0;;;7.1;;
61675;SDS011;47574;52.090;5.244;2022-10-18T07:08:29;8.0;;;7.1;;
61675;SDS011;47574;52.090;5.244;2022-10-18T07:10:06;17.0;;;8.5;;
61675;SDS011;47574;52.090;5.244;2022-10-18T07:13:20;16.61;;;8.6;;
61675;SDS011;47574;52.090;5.244;2022-10-18T07:14:57;13.4;;;7.1;;
61675;SDS011;47574;52.090;5.244;2022-10-18T07:16:33;14.1;;;7.9;;
61675;SDS011;47574;52.090;5.244;2022-10-18T07:19:45;15.7;;;6.1;;
61675;SDS011;47574;52.090;5.244;2022-10-18T07:21:22;15.9;;;6.9;;
61675;SDS011;47574;52.090;5.244;2022-10-18T07:22:59;10.9;;;7.1;;
61675;SDS011;47574;52.090;5.244;2022-10-18T07:26:13;18.11;;;5.9;;
61675;SDS011;47574;52.090;5.244;2022-10-18T07:27:51;18.91;;;6.5;;
61675;SDS011;47574;52.090;5.244;2022-10-18T07:29:28;6.8;;;5.3;;
61675;SDS011;47574;52.090;5.244;2022-10-18T07:31:04;29.4;;;7.9;;
61675;SDS011;47574;52.090;5.244;2022-10-18T07:34:17;14.8;;;6.7;;
61675;SDS011;47574;52.090;5.244;2022-10-18T07:35:53;12.5;;;6.7;;
61675;SDS011;47574;52.090;5.244;2022-10-18T07:37:29;7.6;;;6.7;;
61675;SDS011;47574;52.090;5.244;2022-10-18T07:40:43;13.0;;;6.6;;
61675;SDS011;47574;52.090;5.244;2022-10-18T07:42:20;15.8;;;8.5;;
61675;SDS011;47574;52.090;5.244;2022-10-18T07:43:56;19.3;;;7.6;;
61675;SDS011;47574;52.090;5.244;2022-10-18T07:47:09;11.4;;;8.1;;
61675;SDS011;47574;52.090;5.244;2022-10-18T07:48:45;15.2;;;7.5;;
61675;SDS011;47574;52.090;5.244;2022-10-18T07:50:22;7.4;;;6.3;;
61675;SDS011;47574;52.090;5.244;2022-10-18T07:51:59;9.6;;;7.2;;
61675;SDS011;47574;52.090;5.244;2022-10-18T07:55:13;12.7;;;6.9;;
61675;SDS011;47574;52.090;5.244;2022-10-18T07:56:49;19.0;;;7.8;;
61675;SDS011;47574;52.090;5.244;2022-10-18T07:58:25;14.9;;;8.9;;
61675;SDS011;47574;52.090;5.244;2022-10-18T08:01:40;14.6;;;10.5;;
61675;SDS011;47574;52.090;5.244;2022-10-18T08:03:16;13.7;;;9.31;;
61675;SDS011;47574;52.090;5.244;2022-10-18T08:04:53;11.6;;;8.6;;
61675;SDS011;47574;52.090;5.244;2022-10-18T08:08:05;10.8;;;8.1;;
61675;SDS011;47574;52.090;5.244;2022-10-18T08:09:42;11.4;;;8.9;;
61675;SDS011;47574;52.090;5.244;2022-10-18T08:11:19;12.7;;;10.7;;
61675;SDS011;47574;52.090;5.244;2022-10-18T08:12:57;14.2;;;10.21;;
61675;SDS011;47574;52.090;5.244;2022-10-18T08:16:10;13.3;;;9.31;;
61675;SDS011;47574;52.090;5.244;2022-10-18T08:17:47;13.2;;;9.4;;
61675;SDS011;47574;52.090;5.244;2022-10-18T08:19:23;10.8;;;8.0;;
61675;SDS011;47574;52.090;5.244;2022-10-18T08:22:37;11.6;;;8.9;;
61675;SDS011;47574;52.090;5.244;2022-10-18T08:24:13;12.7;;;8.71;;
61675;SDS011;47574;52.090;5.244;2022-10-18T08:25:49;9.21;;;7.9;;
61675;SDS011;47574;52.090;5.244;2022-10-18T08:29:01;9.0;;;8.1;;
61675;SDS011;47574;52.090;5.244;2022-10-18T08:30:37;9.81;;;8.6;;
61675;SDS011;47574;52.090;5.244;2022-10-18T08:32:14;11.9;;;9.0;;
61675;SDS011;47574;52.090;5.244;2022-10-18T08:33:51;10.5;;;8.31;;
61675;SDS011;47574;52.090;5.244;2022-10-18T08:37:07;10.6;;;7.7;;
61675;SDS011;47574;52.090;5.244;2022-10-18T08:38:43;9.81;;;7.9;;
61675;SDS011;47574;52.090;5.244;2022-10-18T08:40:19;11.5;;;8.1;;
61675;SDS011;47574;52.090;5.244;2022-10-18T08:44:04;13.6;;;8.4;;
61675;SDS011;47574;52.090;5.244;2022-10-18T08:45:46;14.9;;;8.71;;
61675;SDS011;47574;52.090;5.244;2022-10-18T08:47:29;12.0;;;7.5;;
61675;SDS011;47574;52.090;5.244;2022-10-18T08:49:14;10.7;;;7.5;;
61675;SDS011;47574;52.090;5.244;2022-10-18T08:51:01;11.4;;;8.31;;
61675;SDS011;47574;52.090;5.244;2022-10-18T08:52:42;10.3;;;7.7;;
61675;SDS011;47574;52.090;5.244;2022-10-18T08:56:13;13.1;;;8.4;;
61675;SDS011;47574;52.090;5.244;2022-10-18T08:57:51;11.8;;;7.6;;
61675;SDS011;47574;52.090;5.244;2022-10-18T08:59:28;15.7;;;7.4;;
61675;SDS011;47574;52.090;5.244;2022-10-18T09:01:11;10.0;;;6.7;;
61675;SDS011;47574;52.090;5.244;2022-10-18T09:04:54;13.6;;;6.6;;
61675;SDS011;47574;52.090;5.244;2022-10-18T09:06:41;12.1;;;6.6;;
61675;SDS011;47574;52.090;5.244;2022-10-18T09:08:42;9.81;;;5.9;;
61675;SDS011;47574;52.090;5.244;2022-10-18T09:10:31;12.4;;;6.5;;
61675;SDS011;47574;52.090;5.244;2022-10-18T09:12:25;9.9;;;6.2;;
61675;SDS011;47574;52.090;5.244;2022-10-18T09:14:19;9.4;;;5.7;;
61675;SDS011;47574;52.090;5.244;2022-10-18T09:16:26;14.7;;;7.1;;
61675;SDS011;47574;52.090;5.244;2022-10-18T09:18:34;11.5;;;6.5;;
61675;SDS011;47574;52.090;5.244;2022-10-18T09:20:23;8.6;;;6.3;;
61675;SDS011;47574;52.090;5.244;2022-10-18T09:22:02;8.6;;;6.3;;
61675;SDS011;47574;52.090;5.244;2022-10-18T09:25:34;11.6;;;5.9;;
61675;SDS011;47574;52.090;5.244;2022-10-18T09:27:19;10.6;;;6.1;;
61675;SDS011;47574;52.090;5.244;2022-10-18T09:29:04;11.1;;;5.8;;
61675;SDS011;47574;52.090;5.244;2022-10-18T09:30:54;10.0;;;5.5;;
61675;SDS011;47574;52.090;5.244;2022-10-18T09:32:43;11.9;;;5.3;;
61675;SDS011;47574;52.090;5.244;2022-10-18T09:34:29;11.3;;;5.2;;
61675;SDS011;47574;52.090;5.244;2022-10-18T09:37:57;9.71;;;5.4;;
61675;SDS011;47574;52.090;5.244;2022-10-18T09:39:38;13.0;;;4.2;;
61675;SDS011;47574;52.090;5.244;2022-10-18T09:41:18;9.21;;;3.4;;
61675;SDS011;47574;52.090;5.244;2022-10-18T09:42:59;7.4;;;3.2;;
61675;SDS011;47574;52.090;5.244;2022-10-18T09:46:24;10.4;;;3.6;;
61675;SDS011;47574;52.090;5.244;2022-10-18T09:48:05;7.6;;;3.2;;
61675;SDS011;47574;52.090;5.244;2022-10-18T09:49:49;11.0;;;3.2;;
61675;SDS011;47574;52.090;5.244;2022-10-18T09:51:33;8.2;;;2.7;;
61675;SDS011;47574;52.090;5.244;2022-10-18T09:55:02;11.0;;;3.3;;
61675;SDS011;47574;52.090;5.244;2022-10-18T09:56:45;12.0;;;3.6;;
61675;SDS011;47574;52.090;5.244;2022-10-18T09:58:25;8.4;;;2.9;;
61675;SDS011;47574;52.090;5.244;2022-10-18T10:00:13;8.81;;;2.8;;
61675;SDS011;47574;52.090;5.244;2022-10-18T10:01:53;11.2;;;2.7;;
61675;SDS011;47574;52.090;5.244;2022-10-18T10:05:08;9.81;;;2.5;;
61675;SDS011;47574;52.090;5.244;2022-10-18T10:06:48;8.9;;;2.7;;
61675;SDS011;47574;52.090;5.244;2022-10-18T10:08:30;8.5;;;2.31;;
61675;SDS011;47574;52.090;5.244;2022-10-18T10:10:11;9.21;;;2.31;;
61675;SDS011;47574;52.090;5.244;2022-10-18T10:13:28;6.5;;;2.1;;
61675;SDS011;47574;52.090;5.244;2022-10-18T10:15:06;9.4;;;2.1;;
61675;SDS011;47574;52.090;5.244;2022-10-18T10:16:47;9.21;;;2.0;;
61675;SDS011;47574;52.090;5.244;2022-10-18T10:18:28;6.1;;;1.6;;
61675;SDS011;47574;52.090;5.244;2022-10-18T10:21:54;7.9;;;1.7;;
61675;SDS011;47574;52.090;5.244;2022-10-18T10:23:35;9.1;;;2.21;;
61675;SDS011;47574;52.090;5.244;2022-10-18T10:25:22;7.2;;;2.1;;
61675;SDS011;47574;52.090;5.244;2022-10-18T10:27:06;6.4;;;2.1;;
61675;SDS011;47574;52.090;5.244;2022-10-18T10:28:52;7.4;;;2.1;;
61675;SDS011;47574;52.090;5.244;2022-10-18T10:32:10;7.5;;;2.0;;
61675;SDS011;47574;52.090;5.244;2022-10-18T10:33:51;7.4;;;1.6;;
61675;SDS011;47574;52.090;5.244;2022-10-18T10:35:35;10.5;;;1.7;;
61675;SDS011;47574;52.090;5.244;2022-10-18T10:37:22;7.8;;;1.7;;
61675;SDS011;47574;52.090;5.244;2022-10-18T10:40:45;4.8;;;1.3;;
61675;SDS011;47574;52.090;5.244;2022-10-18T10:42:24;6.8;;;1.5;;
61675;SDS011;47574;52.090;5.244;2022-10-18T10:44:00;7.8;;;1.9;;
61675;SDS011;47574;52.090;5.244;2022-10-18T10:45:40;9.9;;;2.21;;
61675;SDS011;47574;52.090;5.244;2022-10-18T10:49:15;7.7;;;2.1;;
61675;SDS011;47574;52.090;5.244;2022-10-18T10:50:56;7.4;;;1.7;;
61675;SDS011;47574;52.090;5.244;2022-10-18T10:52:36;7.3;;;1.9;;
61675;SDS011;47574;52.090;5.244;2022-10-18T10:54:15;8.31;;;2.1;;
61675;SDS011;47574;52.090;5.244;2022-10-18T10:57:32;7.1;;;2.7;;
61675;SDS011;47574;52.090;5.244;2022-10-18T10:59:09;6.5;;;1.5;;
61675;SDS011;47574;52.090;5.244;2022-10-18T11:00:50;5.11;;;1.5;;
61675;SDS011;47574;52.090;5.244;2022-10-18T11:02:28;5.4;;;1.4;;
61675;SDS011;47574;52.090;5.244;2022-10-18T11:06:02;6.7;;;1.5;;
61675;SDS011;47574;52.090;5.244;2022-10-18T11:07:38;8.1;;;1.8;;
61675;SDS011;47574;52.090;5.244;2022-10-18T11:09:21;7.5;;;1.6;;
61675;SDS011;47574;52.090;5.244;2022-10-18T11:11:07;6.5;;;1.7;;
61675;SDS011;47574;52.090;5.244;2022-10-18T11:12:55;10.3;;;2.1;;
61675;SDS011;47574;52.090;5.244;2022-10-18T11:14:50;8.1;;;1.8;;
61675;SDS011;47574;52.090;5.244;2022-10-18T11:18:24;7.9;;;1.6;;
61675;SDS011;47574;52.090;5.244;2022-10-18T11:20:10;8.9;;;1.8;;
61675;SDS011;47574;52.090;5.244;2022-10-18T11:21:56;8.4;;;2.21;;
61675;SDS011;47574;52.090;5.244;2022-10-18T11:23:38;7.2;;;1.4;;
61675;SDS011;47574;52.090;5.244;2022-10-18T11:25:17;7.1;;;1.7;;
61675;SDS011;47574;52.090;5.244;2022-10-18T11:28:44;6.3;;;1.7;;
61675;SDS011;47574;52.090;5.244;2022-10-18T11:30:41;10.3;;;1.5;;
61675;SDS011;47574;52.090;5.244;2022-10-18T11:32:26;6.8;;;1.3;;
61675;SDS011;47574;52.090;5.244;2022-10-18T11:34:15;7.3;;;1.7;;
61675;SDS011;47574;52.090;5.244;2022-10-18T11:36:09;6.0;;;1.6;;
61675;SDS011;47574;52.090;5.244;2022-10-18T11:37:56;7.6;;;1.5;;
61675;SDS011;47574;52.090;5.244;2022-10-18T11:41:39;5.4;;;1.6;;
61675;SDS011;47574;52.090;5.244;2022-10-18T11:43:26;7.9;;;1.8;;
61675;SDS011;47574;52.090;5.244;2022-10-18T11:45:18;6.9;;;1.7;;
61675;SDS011;47574;52.090;5.244;2022-10-18T11:47:06;6.2;;;1.3;;
61675;SDS011;47574;52.090;5.244;2022-10-18T11:48:55;6.5;;;1.4;;
61675;SDS011;47574;52.090;5.244;2022-10-18T11:50:49;2.8;;;1.11;;
61675;SDS011;47574;52.090;5.244;2022-10-18T11:52:36;6.5;;;1.5;;
61675;SDS011;47574;52.090;5.244;2022-10-18T11:56:35;5.2;;;1.11;;
61675;SDS011;47574;52.090;5.244;2022-10-18T11:58:24;5.4;;;1.3;;
61675;SDS011;47574;52.090;5.244;2022-10-18T12:00:18;4.2;;;1.4;;
61675;SDS011;47574;52.090;5.244;2022-10-18T12:02:14;3.7;;;1.11;;
61675;SDS011;47574;52.090;5.244;2022-10-18T12:04:22;4.1;;;1.0;;
61675;SDS011;47574;52.090;5.244;2022-10-18T12:06:02;6.1;;;1.2;;
61675;SDS011;47574;52.090;5.244;2022-10-18T12:07:46;7.1;;;1.3;;
61675;SDS011;47574;52.090;5.244;2022-10-18T12:09:35;4.3;;;1.3;;
61675;SDS011;47574;52.090;5.244;2022-10-18T12:12:58;5.3;;;1.4;;
61675;SDS011;47574;52.090;5.244;2022-10-18T12:14:38;3.6;;;1.3;;
61675;SDS011;47574;52.090;5.244;2022-10-18T12:16:21;5.4;;;1.2;;
61675;SDS011;47574;52.090;5.244;2022-10-18T12:18:04;3.7;;;1.0;;
61675;SDS011;47574;52.090;5.244;2022-10-18T12:19:45;5.2;;;1.2;;
61675;SDS011;47574;52.090;5.244;2022-10-18T12:23:07;5.4;;;2.1;;
61675;SDS011;47574;52.090;5.244;2022-10-18T12:24:47;5.4;;;1.8;;
61675;SDS011;47574;52.090;5.244;2022-10-18T12:26:24;5.0;;;1.4;;
61675;SDS011;47574;52.090;5.244;2022-10-18T12:28:05;5.2;;;1.7;;
61675;SDS011;47574;52.090;5.244;2022-10-18T12:31:38;4.8;;;1.5;;
61675;SDS011;47574;52.090;5.244;2022-10-18T12:33:22;4.7;;;2.0;;
61675;SDS011;47574;52.090;5.244;2022-10-18T12:35:16;5.4;;;1.4;;
61675;SDS011;47574;52.090;5.244;2022-10-18T12:38:52;8.6;;;3.6;;
61675;SDS011;47574;52.090;5.244;2022-10-18T12:42:17;5.9;;;3.2;;
61675;SDS011;47574;52.090;5.244;2022-10-18T12:43:57;3.1;;;1.3;;
61675;SDS011;47574;52.090;5.244;2022-10-18T12:45:45;5.7;;;1.6;;
61675;SDS011;47574;52.090;5.244;2022-10-18T12:47:25;6.4;;;1.4;;